createdAt,value
2022-08-27T00:00:14.548Z,20.60
2022-08-27T00:02:45.723Z,20.50
2022-08-27T00:08:02.414Z,20.50
2022-08-27T00:10:33.654Z,20.50
2022-08-27T00:13:01.424Z,20.60
2022-08-27T00:15:34.423Z,20.70
2022-08-27T00:18:01.430Z,20.80
2022-08-27T00:20:31.354Z,20.80
2022-08-27T00:23:01.175Z,20.70
2022-08-27T00:25:32.170Z,20.60
2022-08-27T00:28:02.583Z,20.60
2022-08-27T00:30:32.228Z,20.60
2022-08-27T00:33:07.709Z,20.70
2022-08-27T00:35:38.339Z,20.70
2022-08-27T00:38:08.364Z,20.50
2022-08-27T00:40:35.621Z,20.30
2022-08-27T00:43:04.203Z,20.20
2022-08-27T00:45:39.599Z,20.20
2022-08-27T00:48:18.312Z,20.10
2022-08-27T00:50:53.043Z,20.00
2022-08-27T00:53:36.974Z,20.00
2022-08-27T00:56:31.929Z,19.90
2022-08-27T00:59:04.564Z,20.00
2022-08-27T01:01:35.822Z,20.10
2022-08-27T01:04:06.883Z,20.10
2022-08-27T01:06:42.496Z,20.20
2022-08-27T01:09:23.634Z,20.20
2022-08-27T01:12:00.023Z,20.10
2022-08-27T01:14:35.009Z,20.00
2022-08-27T01:17:06.373Z,20.00
2022-08-27T01:20:03.424Z,19.90
2022-08-27T01:23:10.207Z,19.80
2022-08-27T01:25:40.683Z,19.80
2022-08-27T01:28:21.832Z,19.70
2022-08-27T01:30:53.403Z,19.70
2022-08-27T01:33:21.905Z,19.70
2022-08-27T01:35:51.324Z,19.70
2022-08-27T01:38:30.996Z,19.80
2022-08-27T01:41:00.674Z,19.90
2022-08-27T01:43:29.251Z,19.80
2022-08-27T01:45:56.254Z,19.70
2022-08-27T01:48:23.854Z,19.70
2022-08-27T01:50:51.134Z,19.60
2022-08-27T01:53:24.279Z,19.50
2022-08-27T01:55:52.593Z,19.60
2022-08-27T01:58:21.994Z,19.70
2022-08-27T02:00:54.720Z,19.70
2022-08-27T02:03:24.600Z,19.80
2022-08-27T02:05:52.343Z,19.80
2022-08-27T02:08:19.774Z,19.90
2022-08-27T02:10:48.723Z,20.00
2022-08-27T02:13:16.419Z,20.00
2022-08-27T02:15:45.113Z,20.10
2022-08-27T02:18:13.609Z,19.90
2022-08-27T02:20:41.369Z,19.80
2022-08-27T02:23:09.159Z,19.70
2022-08-27T02:25:36.979Z,19.90
2022-08-27T02:28:05.974Z,19.90
2022-08-27T02:30:34.735Z,20.00
2022-08-27T02:33:03.350Z,20.00
2022-08-27T02:35:32.734Z,19.90
2022-08-27T02:38:01.749Z,19.80
2022-08-27T02:40:29.773Z,19.80
2022-08-27T02:42:57.028Z,19.80
2022-08-27T02:45:24.184Z,19.80
2022-08-27T02:47:51.233Z,19.80
2022-08-27T02:50:18.664Z,19.70
2022-08-27T02:52:46.395Z,19.70
2022-08-27T02:55:17.192Z,19.70
2022-08-27T02:57:45.230Z,19.70
2022-08-27T03:00:16.650Z,19.60
2022-08-27T03:02:44.382Z,19.60
2022-08-27T03:05:13.484Z,19.50
2022-08-27T03:07:41.414Z,19.60
2022-08-27T03:10:10.255Z,19.60
2022-08-27T03:12:37.774Z,19.60
2022-08-27T03:15:06.675Z,19.60
2022-08-27T03:17:52.289Z,19.50
2022-08-27T03:20:19.568Z,19.40
2022-08-27T03:22:46.928Z,19.30
2022-08-27T03:25:14.306Z,19.30
2022-08-27T03:27:41.610Z,19.20
2022-08-27T03:30:13.665Z,19.10
2022-08-27T03:32:40.809Z,19.10
2022-08-27T03:35:08.770Z,19.20
2022-08-27T03:37:36.322Z,19.30
2022-08-27T03:40:05.556Z,19.30
2022-08-27T03:42:32.613Z,19.30
2022-08-27T03:44:59.689Z,19.20
2022-08-27T03:47:26.879Z,19.10
2022-08-27T03:49:54.355Z,19.00
2022-08-27T03:52:21.453Z,18.90
2022-08-27T03:54:48.516Z,18.90
2022-08-27T03:57:15.578Z,18.90
2022-08-27T03:59:42.725Z,18.90
2022-08-27T04:02:09.914Z,18.90
2022-08-27T04:04:37.300Z,19.00
2022-08-27T04:07:05.015Z,19.00
2022-08-27T04:09:32.143Z,18.90
2022-08-27T04:11:59.179Z,18.90
2022-08-27T04:14:27.406Z,18.90
2022-08-27T04:16:56.769Z,18.80
2022-08-27T04:19:28.135Z,18.90
2022-08-27T04:22:00.805Z,19.00
2022-08-27T04:24:29.239Z,19.10
2022-08-27T04:26:56.354Z,19.20
2022-08-27T04:29:24.274Z,19.20
2022-08-27T04:31:51.838Z,19.20
2022-08-27T04:34:19.469Z,19.20
2022-08-27T04:36:46.794Z,19.00
2022-08-27T04:39:14.805Z,18.90
2022-08-27T04:41:42.057Z,18.90
2022-08-27T04:44:11.289Z,19.00
2022-08-27T04:46:40.709Z,19.20
2022-08-27T04:49:13.888Z,19.40
2022-08-27T04:51:43.388Z,19.50
2022-08-27T04:54:11.354Z,19.50
2022-08-27T04:56:39.365Z,19.40
2022-08-27T04:59:08.912Z,19.40
2022-08-27T05:01:37.574Z,19.50
2022-08-27T05:04:05.374Z,19.50
2022-08-27T05:06:33.904Z,19.70
2022-08-27T05:09:00.956Z,19.90
2022-08-27T05:11:32.604Z,20.20
2022-08-27T05:14:01.564Z,20.20
2022-08-27T05:16:28.632Z,20.20
2022-08-27T05:18:56.249Z,20.20
2022-08-27T05:21:27.536Z,20.30
2022-08-27T05:23:56.629Z,20.50
2022-08-27T05:26:23.960Z,20.70
2022-08-27T05:28:51.529Z,20.80
2022-08-27T05:31:20.412Z,20.90
2022-08-27T05:33:48.809Z,21.10
2022-08-27T05:36:22.574Z,21.20
2022-08-27T05:38:50.695Z,21.30
2022-08-27T05:41:22.290Z,21.50
2022-08-27T05:43:50.716Z,21.60
2022-08-27T05:46:21.256Z,21.70
2022-08-27T05:48:50.519Z,21.80
2022-08-27T05:51:31.350Z,21.90
2022-08-27T05:54:05.595Z,22.10
2022-08-27T05:56:36.029Z,22.10
2022-08-27T05:59:21.404Z,22.20
2022-08-27T06:01:50.351Z,22.30
2022-08-27T06:04:19.909Z,22.40
2022-08-27T06:06:49.029Z,22.40
2022-08-27T06:09:23.453Z,22.50
2022-08-27T06:11:51.024Z,22.60
2022-08-27T06:14:18.149Z,22.70
2022-08-27T06:16:45.224Z,22.80
2022-08-27T06:19:12.731Z,22.90
2022-08-27T06:21:41.578Z,23.00
2022-08-27T06:24:09.263Z,23.10
2022-08-27T06:26:36.664Z,23.10
2022-08-27T06:29:05.539Z,23.20
2022-08-27T06:31:35.798Z,23.30
2022-08-27T06:34:07.666Z,23.40
2022-08-27T06:36:41.689Z,23.40
2022-08-27T06:39:13.838Z,23.50
2022-08-27T06:41:42.488Z,23.50
2022-08-27T06:44:10.021Z,23.50
2022-08-27T06:46:37.283Z,23.50
2022-08-27T06:49:04.369Z,23.30
2022-08-27T06:51:33.929Z,23.40
2022-08-27T06:54:04.328Z,23.40
2022-08-27T06:56:32.046Z,23.60
2022-08-27T06:59:03.928Z,23.90
2022-08-27T07:01:36.778Z,24.10
2022-08-27T07:04:07.840Z,24.20
2022-08-27T07:06:35.533Z,24.20
2022-08-27T07:09:03.530Z,24.30
2022-08-27T07:11:34.224Z,24.30
2022-08-27T07:14:02.120Z,24.30
2022-08-27T07:16:30.245Z,24.30
2022-08-27T07:19:02.368Z,24.50
2022-08-27T07:21:33.194Z,24.70
2022-08-27T07:24:05.199Z,24.80
2022-08-27T07:26:35.045Z,25.00
2022-08-27T07:29:03.523Z,25.10
2022-08-27T07:31:30.854Z,25.10
2022-08-27T07:33:57.970Z,25.20
2022-08-27T07:36:26.349Z,25.30
2022-08-27T07:38:56.969Z,25.40
2022-08-27T07:41:31.899Z,25.50
2022-08-27T07:44:25.864Z,25.60
2022-08-27T07:46:56.258Z,25.80
2022-08-27T07:49:24.794Z,25.90
2022-08-27T07:51:52.615Z,26.10
2022-08-27T07:54:23.164Z,26.20
2022-08-27T07:56:55.169Z,26.10
2022-08-27T07:59:25.095Z,26.00
2022-08-27T08:01:54.889Z,26.10
2022-08-27T08:04:22.937Z,26.20
2022-08-27T08:06:51.712Z,26.30
2022-08-27T08:09:22.512Z,26.50
2022-08-27T08:11:52.715Z,26.60
2022-08-27T08:14:21.231Z,26.80
2022-08-27T08:16:48.599Z,26.90
2022-08-27T08:19:16.154Z,26.80
2022-08-27T08:21:43.794Z,26.80
2022-08-27T08:24:10.984Z,27.00
2022-08-27T08:26:38.084Z,27.10
2022-08-27T08:29:05.427Z,27.30
2022-08-27T08:31:33.229Z,27.30
2022-08-27T08:34:00.405Z,27.40
2022-08-27T08:36:27.510Z,27.40
2022-08-27T08:38:55.434Z,27.60
2022-08-27T08:41:31.121Z,27.60
2022-08-27T08:44:04.931Z,27.50
2022-08-27T08:46:58.717Z,27.40
2022-08-27T08:49:38.189Z,27.50
2022-08-27T08:52:30.559Z,27.70
2022-08-27T08:55:21.989Z,27.90
2022-08-27T08:58:09.690Z,28.00
2022-08-27T09:00:39.609Z,28.10
2022-08-27T09:03:08.276Z,28.20
2022-08-27T09:05:39.654Z,28.30
2022-08-27T09:08:34.176Z,28.40
2022-08-27T09:11:16.229Z,28.50
2022-08-27T09:14:23.276Z,28.40
2022-08-27T09:16:50.457Z,28.20
2022-08-27T09:19:24.712Z,28.30
2022-08-27T09:22:03.335Z,28.50
2022-08-27T09:24:53.013Z,28.50
2022-08-27T09:27:22.366Z,28.50
2022-08-27T09:29:55.381Z,28.30
2022-08-27T09:32:28.433Z,28.40
2022-08-27T09:35:00.889Z,28.50
2022-08-27T09:37:38.970Z,28.50
2022-08-27T09:40:32.108Z,28.50
2022-08-27T09:43:20.894Z,28.40
2022-08-27T09:45:54.612Z,28.30
2022-08-27T09:48:33.599Z,28.40
2022-08-27T09:51:06.794Z,28.60
2022-08-27T09:53:45.729Z,28.90
2022-08-27T09:56:39.470Z,29.10
2022-08-27T09:59:13.334Z,29.40
2022-08-27T10:01:54.990Z,29.50
2022-08-27T10:04:33.793Z,29.70
2022-08-27T10:07:23.226Z,29.60
2022-08-27T10:10:23.763Z,29.60
2022-08-27T10:13:18.878Z,29.60
2022-08-27T10:16:01.034Z,29.70
2022-08-27T10:18:45.064Z,29.80
2022-08-27T10:21:25.543Z,29.90
2022-08-27T10:24:13.199Z,30.10
2022-08-27T10:26:52.754Z,30.30
2022-08-27T10:29:45.214Z,30.40
2022-08-27T10:32:31.543Z,30.50
2022-08-27T10:35:12.934Z,30.60
2022-08-27T10:37:57.604Z,30.60
2022-08-27T10:40:57.934Z,30.60
2022-08-27T10:43:44.185Z,30.60
2022-08-27T10:46:27.165Z,30.60
2022-08-27T10:49:09.814Z,30.60
2022-08-27T10:52:17.549Z,30.60
2022-08-27T10:55:10.589Z,30.50
2022-08-27T10:58:00.159Z,30.50
2022-08-27T11:00:48.886Z,30.60
2022-08-27T11:03:49.228Z,30.30
2022-08-27T11:06:28.255Z,30.20
2022-08-27T11:09:07.761Z,30.30
2022-08-27T11:14:39.751Z,30.50
2022-08-27T11:17:34.964Z,30.30
2022-08-27T11:20:12.343Z,30.40
2022-08-27T11:22:55.334Z,30.50
2022-08-27T11:25:22.405Z,30.60
2022-08-27T11:27:53.803Z,30.70
2022-08-27T11:30:40.274Z,30.70
2022-08-27T11:33:36.729Z,30.80
2022-08-27T11:36:41.654Z,30.70
2022-08-27T11:39:17.574Z,30.60
2022-08-27T11:42:02.738Z,30.30
2022-08-27T11:44:30.316Z,30.20
2022-08-27T11:47:22.489Z,30.20
2022-08-27T11:49:54.671Z,30.20
2022-08-27T11:52:36.176Z,30.10
2022-08-27T11:55:21.189Z,30.10
2022-08-27T11:58:24.309Z,29.90
2022-08-27T12:00:53.832Z,29.80
2022-08-27T12:03:23.717Z,29.90
2022-08-27T12:05:53.975Z,29.80
2022-08-27T12:08:24.348Z,29.80
2022-08-27T12:10:57.314Z,29.80
2022-08-27T12:13:51.003Z,29.60
2022-08-27T12:16:42.362Z,29.70
2022-08-27T12:19:36.898Z,29.80
2022-08-27T12:22:31.683Z,29.80
2022-08-27T12:24:59.953Z,29.80
2022-08-27T12:27:36.464Z,29.80
2022-08-27T12:30:30.393Z,29.80
2022-08-27T12:32:59.638Z,29.80
2022-08-27T12:35:31.529Z,29.80
2022-08-27T12:38:16.088Z,29.80
2022-08-27T12:41:00.309Z,29.80
2022-08-27T12:43:29.814Z,29.80
2022-08-27T12:46:05.828Z,29.60
2022-08-27T12:48:41.543Z,29.40
2022-08-27T12:51:19.368Z,29.30
2022-08-27T12:53:55.028Z,29.10
2022-08-27T12:56:34.033Z,29.00
2022-08-27T12:59:16.488Z,28.90
2022-08-27T13:02:12.585Z,28.80
2022-08-27T13:04:41.308Z,28.80
2022-08-27T13:07:08.638Z,28.70
2022-08-27T13:09:38.309Z,28.60
2022-08-27T13:12:18.185Z,28.60
2022-08-27T13:14:56.841Z,28.50
2022-08-27T13:17:24.614Z,28.60
2022-08-27T13:20:00.914Z,28.60
2022-08-27T13:22:38.788Z,28.60
2022-08-27T13:25:18.743Z,28.40
2022-08-27T13:27:54.194Z,27.70
2022-08-27T13:30:35.943Z,26.00
2022-08-27T13:33:06.149Z,24.90
2022-08-27T13:35:33.989Z,24.40
2022-08-27T13:38:03.725Z,23.90
2022-08-27T13:40:52.096Z,23.70
2022-08-27T13:43:20.087Z,23.80
2022-08-27T13:45:51.727Z,23.90
2022-08-27T13:48:20.253Z,24.00
2022-08-27T13:50:55.497Z,24.10
2022-08-27T13:53:50.014Z,24.10
2022-08-27T13:56:49.655Z,24.10
2022-08-27T13:59:19.609Z,24.20
2022-08-27T14:02:04.984Z,24.00
2022-08-27T14:05:41.178Z,23.30
2022-08-27T14:08:18.228Z,23.00
2022-08-27T14:10:48.833Z,22.70
2022-08-27T14:13:24.423Z,22.50
2022-08-27T14:15:54.824Z,22.50
2022-08-27T14:18:48.039Z,22.50
2022-08-27T14:21:14.746Z,22.60
2022-08-27T14:23:41.954Z,22.60
2022-08-27T14:26:09.414Z,22.50
2022-08-27T14:28:37.073Z,22.40
2022-08-27T14:31:04.210Z,22.40
2022-08-27T14:33:31.554Z,22.40
2022-08-27T14:36:00.734Z,22.40
2022-08-27T14:38:31.830Z,22.60
2022-08-27T14:40:58.993Z,22.70
2022-08-27T14:43:26.233Z,22.70
2022-08-27T14:45:54.367Z,22.80
2022-08-27T14:48:30.597Z,22.90
2022-08-27T14:50:59.264Z,23.00
2022-08-27T14:53:26.868Z,22.90
2022-08-27T14:55:55.143Z,22.80
2022-08-27T14:58:22.630Z,22.80
2022-08-27T15:00:52.381Z,22.90
2022-08-27T15:03:20.209Z,23.00
2022-08-27T15:05:47.238Z,23.00
2022-08-27T15:08:16.090Z,22.90
2022-08-27T15:10:43.487Z,22.70
2022-08-27T15:13:38.388Z,22.30
2022-08-27T15:16:05.835Z,22.10
2022-08-27T15:18:32.872Z,21.80
2022-08-27T15:21:00.358Z,21.30
2022-08-27T15:23:27.481Z,21.10
2022-08-27T15:25:54.537Z,21.00
2022-08-27T15:28:21.637Z,21.00
2022-08-27T15:30:48.724Z,20.90
2022-08-27T15:33:16.245Z,20.80
2022-08-27T15:35:43.297Z,20.80
2022-08-27T15:38:11.004Z,20.70
2022-08-27T15:40:38.627Z,20.60
2022-08-27T15:43:07.429Z,20.40
2022-08-27T15:45:34.864Z,20.50
2022-08-27T15:48:02.014Z,20.40
2022-08-27T15:50:31.314Z,20.40
2022-08-27T15:53:02.117Z,20.30
2022-08-27T15:55:32.117Z,20.30
2022-08-27T15:58:00.109Z,20.30
2022-08-27T16:00:28.494Z,20.40
2022-08-27T16:02:56.922Z,20.50
2022-08-27T16:05:24.135Z,20.60
2022-08-27T16:07:51.258Z,20.70
2022-08-27T16:10:18.427Z,20.30
2022-08-27T16:12:46.357Z,19.50
2022-08-27T16:15:14.387Z,18.90
2022-08-27T16:17:42.752Z,18.60
2022-08-27T16:20:12.525Z,18.50
2022-08-27T16:22:40.343Z,18.50
2022-08-27T16:25:08.539Z,18.40
2022-08-27T16:27:37.644Z,18.60
2022-08-27T16:30:06.353Z,18.80
2022-08-27T16:32:33.441Z,18.90
2022-08-27T16:35:00.688Z,19.00
2022-08-27T16:37:27.703Z,19.00
2022-08-27T16:39:54.855Z,18.70
2022-08-27T16:42:22.615Z,18.60
2022-08-27T16:44:50.162Z,18.50
2022-08-27T16:47:17.888Z,18.40
2022-08-27T16:50:03.455Z,18.40
2022-08-27T16:52:30.576Z,18.30
2022-08-27T16:54:57.602Z,18.30
2022-08-27T16:57:24.746Z,18.20
2022-08-27T16:59:51.753Z,18.20
2022-08-27T17:02:32.170Z,18.20
2022-08-27T17:05:23.831Z,18.20
2022-08-27T17:07:49.282Z,18.20
2022-08-27T17:10:20.682Z,18.30
2022-08-27T17:12:48.530Z,18.40
2022-08-27T17:15:16.924Z,18.60
2022-08-27T17:17:44.517Z,18.50
2022-08-27T17:20:12.911Z,18.30
2022-08-27T17:22:39.999Z,18.10
2022-08-27T17:25:08.088Z,17.90
2022-08-27T17:27:35.505Z,17.80
2022-08-27T17:30:02.762Z,18.00
2022-08-27T17:32:32.802Z,18.10
2022-08-27T17:35:05.086Z,18.30
2022-08-27T17:37:33.575Z,18.50
2022-08-27T17:40:01.061Z,18.50
2022-08-27T17:42:29.827Z,18.60
2022-08-27T17:44:57.522Z,18.70
2022-08-27T17:47:25.302Z,18.70
2022-08-27T17:49:52.873Z,18.80
2022-08-27T17:52:21.492Z,18.80
2022-08-27T17:54:52.337Z,18.70
2022-08-27T17:57:21.123Z,18.80
2022-08-27T17:59:48.554Z,18.90
2022-08-27T18:02:19.858Z,18.80
2022-08-27T18:04:48.164Z,18.60
2022-08-27T18:07:15.537Z,18.40
2022-08-27T18:09:42.917Z,18.20
2022-08-27T18:12:13.622Z,18.10
2022-08-27T18:14:41.158Z,18.00
2022-08-27T18:17:08.252Z,17.90
2022-08-27T18:19:35.536Z,17.90
2022-08-27T18:22:04.902Z,17.80
2022-08-27T18:24:32.067Z,17.70
2022-08-27T18:26:59.122Z,17.70
2022-08-27T18:29:26.262Z,17.60
2022-08-27T18:31:53.769Z,17.60
2022-08-27T18:34:21.254Z,17.60
2022-08-27T18:36:48.786Z,17.60
2022-08-27T18:39:16.063Z,17.60
2022-08-27T18:41:44.017Z,17.60
2022-08-27T18:44:17.700Z,17.60
2022-08-27T18:46:45.334Z,17.60
2022-08-27T18:49:12.382Z,17.60
2022-08-27T18:51:42.915Z,17.70
2022-08-27T18:54:10.556Z,17.60
2022-08-27T18:56:37.707Z,17.70
2022-08-27T18:59:07.238Z,17.60
2022-08-27T19:01:34.417Z,17.60
2022-08-27T19:04:03.662Z,17.60
2022-08-27T19:06:30.817Z,17.60
2022-08-27T19:08:58.058Z,17.60
2022-08-27T19:11:25.123Z,17.60
2022-08-27T19:13:52.252Z,17.60
2022-08-27T19:16:33.361Z,17.60
2022-08-27T19:19:00.471Z,17.60
2022-08-27T19:21:27.543Z,17.70
2022-08-27T19:23:54.618Z,17.70
2022-08-27T19:26:24.864Z,17.70
2022-08-27T19:28:52.097Z,17.80
2022-08-27T19:31:19.245Z,17.80
2022-08-27T19:33:46.386Z,17.80
2022-08-27T19:36:16.553Z,17.80
2022-08-27T19:38:45.292Z,17.80
2022-08-27T19:41:13.119Z,17.80
2022-08-27T19:43:44.010Z,17.80
2022-08-27T19:46:17.375Z,17.80
2022-08-27T19:48:44.518Z,17.90
2022-08-27T19:51:12.017Z,18.00
2022-08-27T19:53:39.516Z,18.10
2022-08-27T19:56:09.257Z,18.20
2022-08-27T19:58:36.997Z,18.30
2022-08-27T20:01:04.107Z,18.40
2022-08-27T20:03:31.325Z,18.40
2022-08-27T20:05:58.409Z,18.40
2022-08-27T20:08:25.591Z,18.50
2022-08-27T20:10:52.758Z,18.50
2022-08-27T20:13:19.912Z,18.50
2022-08-27T20:15:48.055Z,18.60
2022-08-27T20:18:15.392Z,18.50
2022-08-27T20:20:42.982Z,18.60
2022-08-27T20:23:10.024Z,18.60
2022-08-27T20:25:37.789Z,18.50
2022-08-27T20:28:28.345Z,18.60
2022-08-27T20:30:54.060Z,18.60
2022-08-27T20:33:21.136Z,18.60
2022-08-27T20:35:48.222Z,18.60
2022-08-27T20:38:15.358Z,18.60
2022-08-27T20:40:42.932Z,18.60
2022-08-27T20:43:10.117Z,18.60
2022-08-27T20:45:39.419Z,18.70
2022-08-27T20:48:06.593Z,18.70
2022-08-27T20:50:33.707Z,18.70
2022-08-27T20:53:01.261Z,18.70
2022-08-27T20:55:29.111Z,18.60
2022-08-27T20:58:14.708Z,18.70
2022-08-27T21:00:43.486Z,18.60
2022-08-27T21:03:14.051Z,18.60
2022-08-27T21:05:47.261Z,18.60
2022-08-27T21:08:16.928Z,18.60
2022-08-27T21:10:47.702Z,18.60
2022-08-27T21:13:16.107Z,18.50
2022-08-27T21:15:43.652Z,18.40
2022-08-27T21:18:11.180Z,18.10
2022-08-27T21:20:38.581Z,18.00
2022-08-27T21:23:07.066Z,17.90
2022-08-27T21:25:36.896Z,17.80
2022-08-27T21:28:07.910Z,17.80
2022-08-27T21:30:37.541Z,17.90
2022-08-27T21:33:14.341Z,17.90
2022-08-27T21:35:45.432Z,17.80
2022-08-27T21:38:16.541Z,17.70
2022-08-27T21:40:55.301Z,17.60
2022-08-27T21:43:25.696Z,17.60
2022-08-27T21:45:58.986Z,17.60
2022-08-27T21:48:27.851Z,17.60
2022-08-27T21:50:57.050Z,17.60
2022-08-27T21:53:26.902Z,17.60
2022-08-27T21:55:57.381Z,17.60
2022-08-27T21:58:27.986Z,17.70
2022-08-27T22:00:56.417Z,17.70
2022-08-27T22:03:26.301Z,17.60
2022-08-27T22:05:55.856Z,17.60
2022-08-27T22:08:24.441Z,17.60
2022-08-27T22:10:59.014Z,17.70
2022-08-27T22:13:28.292Z,17.80
2022-08-27T22:15:57.282Z,17.80
2022-08-27T22:18:28.336Z,17.70
2022-08-27T22:21:07.625Z,17.70
2022-08-27T22:23:37.778Z,17.80
2022-08-27T22:26:07.546Z,17.80
2022-08-27T22:28:37.416Z,17.80
2022-08-27T22:31:18.084Z,17.90
2022-08-27T22:33:48.061Z,18.00
2022-08-27T22:36:16.606Z,18.10
2022-08-27T22:38:45.271Z,18.10
2022-08-27T22:41:18.315Z,18.10
2022-08-27T22:43:48.583Z,18.20
2022-08-27T22:46:17.104Z,18.00
2022-08-27T22:48:46.026Z,17.80
2022-08-27T22:51:15.672Z,17.70
2022-08-27T22:53:52.936Z,17.60
2022-08-27T22:56:24.287Z,17.50
2022-08-27T22:58:52.512Z,17.40
2022-08-27T23:04:08.938Z,17.10
2022-08-27T23:06:39.171Z,17.10
2022-08-27T23:09:07.597Z,17.00
2022-08-27T23:11:37.831Z,17.00
2022-08-27T23:14:05.089Z,17.10
2022-08-27T23:16:43.191Z,17.10
2022-08-27T23:19:25.855Z,17.10
2022-08-27T23:21:56.106Z,17.10
2022-08-27T23:24:24.728Z,17.10
2022-08-27T23:27:14.271Z,17.20
2022-08-27T23:29:43.626Z,17.30
2022-08-27T23:32:19.136Z,17.40
2022-08-27T23:34:49.726Z,17.40
2022-08-27T23:37:18.266Z,17.30
2022-08-27T23:39:53.215Z,17.20
2022-08-27T23:42:23.736Z,17.00
2022-08-27T23:44:53.117Z,16.80
2022-08-27T23:47:23.415Z,16.50
2022-08-27T23:50:02.108Z,16.40
2022-08-27T23:52:32.901Z,16.40
2022-08-27T23:55:03.164Z,16.20
2022-08-27T23:57:32.631Z,16.00
